createdAt,value
2022-08-18T00:00:07.023Z,3.80
2022-08-18T00:02:43.534Z,3.50
2022-08-18T00:05:24.056Z,3.23
2022-08-18T00:07:51.597Z,3.40
2022-08-18T00:10:19.115Z,3.43
2022-08-18T00:12:46.499Z,3.67
2022-08-18T00:15:32.497Z,4.40
2022-08-18T00:18:12.034Z,3.70
2022-08-18T00:20:40.646Z,3.93
2022-08-18T00:23:08.005Z,3.67
2022-08-18T00:25:36.000Z,3.97
2022-08-18T00:28:04.059Z,4.40
2022-08-18T00:30:31.534Z,4.10
2022-08-18T00:33:01.345Z,4.20
2022-08-18T00:35:40.190Z,4.33
2022-08-18T00:38:09.356Z,3.60
2022-08-18T00:40:53.726Z,4.03
2022-08-18T00:43:39.856Z,3.90
2022-08-18T00:46:17.658Z,4.60
2022-08-18T00:48:48.626Z,4.47
2022-08-18T00:51:49.519Z,4.47
2022-08-18T00:54:16.789Z,4.23
2022-08-18T00:56:55.532Z,4.50
2022-08-18T00:59:46.630Z,4.17
2022-08-18T01:02:30.736Z,4.00
2022-08-18T01:05:01.737Z,4.97
2022-08-18T01:07:37.480Z,4.23
2022-08-18T01:10:05.050Z,4.10
2022-08-18T01:12:45.118Z,5.17
2022-08-18T01:15:29.116Z,4.63
2022-08-18T01:18:18.557Z,5.00
2022-08-18T01:21:35.106Z,5.20
2022-08-18T01:24:07.411Z,5.30
2022-08-18T01:26:45.655Z,4.80
2022-08-18T01:29:18.956Z,4.97
2022-08-18T01:32:00.029Z,4.90
2022-08-18T01:34:28.588Z,4.67
2022-08-18T01:36:56.773Z,4.40
2022-08-18T01:41:23.718Z,4.40
2022-08-18T01:42:35.133Z,4.17
2022-08-18T01:45:40.133Z,4.10
2022-08-18T01:48:40.155Z,4.30
2022-08-18T01:51:09.796Z,3.30
2022-08-18T01:53:38.087Z,4.10
2022-08-18T01:56:20.444Z,4.27
2022-08-18T01:59:19.604Z,3.83
2022-08-18T02:02:00.533Z,3.97
2022-08-18T02:04:40.734Z,4.10
2022-08-18T02:07:32.648Z,4.43
2022-08-18T02:10:16.629Z,4.20
2022-08-18T02:15:47.604Z,4.90
2022-08-18T02:18:37.205Z,3.97
2022-08-18T02:21:11.443Z,4.13
2022-08-18T02:23:40.052Z,4.60
2022-08-18T02:26:20.183Z,4.70
2022-08-18T02:28:47.799Z,4.43
2022-08-18T02:31:31.364Z,4.80
2022-08-18T02:34:00.848Z,4.40
2022-08-18T02:36:29.602Z,5.23
2022-08-18T02:39:03.071Z,4.57
2022-08-18T02:41:31.533Z,5.70
2022-08-18T02:44:00.476Z,5.57
2022-08-18T02:46:30.043Z,5.07
2022-08-18T02:49:01.838Z,4.70
2022-08-18T02:51:29.601Z,4.80
2022-08-18T02:53:59.852Z,5.57
2022-08-18T02:56:32.716Z,4.40
2022-08-18T02:59:17.074Z,4.67
2022-08-18T03:01:51.116Z,4.53
2022-08-18T03:04:30.047Z,4.03
2022-08-18T03:07:02.287Z,4.50
2022-08-18T03:09:36.701Z,4.50
2022-08-18T03:12:08.455Z,3.87
2022-08-18T03:14:38.186Z,4.77
2022-08-18T03:17:16.957Z,5.10
2022-08-18T03:19:47.891Z,5.07
2022-08-18T03:22:28.327Z,4.13
2022-08-18T03:25:02.300Z,5.43
2022-08-18T03:27:31.062Z,4.80
2022-08-18T03:30:11.636Z,5.47
2022-08-18T03:32:39.108Z,5.40
2022-08-18T03:35:15.071Z,4.40
2022-08-18T03:37:45.388Z,5.23
2022-08-18T03:40:12.912Z,5.67
2022-08-18T03:42:40.452Z,5.87
2022-08-18T03:45:17.794Z,6.57
2022-08-18T03:47:49.947Z,5.23
2022-08-18T03:50:20.177Z,5.17
2022-08-18T03:52:48.664Z,6.90
2022-08-18T03:55:16.724Z,6.27
2022-08-18T03:57:50.966Z,6.40
2022-08-18T04:00:19.841Z,6.00
2022-08-18T04:02:47.260Z,5.50
2022-08-18T04:05:14.840Z,6.17
2022-08-18T04:07:44.752Z,6.10
2022-08-18T04:10:19.398Z,6.73
2022-08-18T04:12:53.204Z,5.93
2022-08-18T04:15:28.684Z,6.77
2022-08-18T04:18:06.632Z,5.17
2022-08-18T04:20:54.700Z,6.13
2022-08-18T04:23:28.056Z,6.03
2022-08-18T04:25:57.853Z,6.10
2022-08-18T04:28:44.850Z,5.63
2022-08-18T04:31:14.655Z,6.60
2022-08-18T04:33:42.369Z,5.93
2022-08-18T04:36:19.191Z,7.10
2022-08-18T04:38:50.542Z,7.13
2022-08-18T04:41:23.401Z,6.77
2022-08-18T04:43:52.693Z,8.67
2022-08-18T04:46:20.444Z,7.47
2022-08-18T04:48:52.397Z,7.60
2022-08-18T04:52:34.333Z,6.47
2022-08-18T04:54:07.933Z,7.67
2022-08-18T04:56:38.763Z,7.80
2022-08-18T04:59:09.530Z,9.17
2022-08-18T05:01:48.148Z,8.00
2022-08-18T05:04:20.295Z,8.17
2022-08-18T05:06:47.429Z,8.67
2022-08-18T05:09:23.047Z,8.83
2022-08-18T05:11:51.171Z,8.27
2022-08-18T05:14:24.460Z,7.60
2022-08-18T05:16:52.091Z,7.87
2022-08-18T05:19:27.095Z,7.20
2022-08-18T05:21:59.541Z,9.20
2022-08-18T05:24:36.858Z,8.67
2022-08-18T05:27:09.436Z,8.63
2022-08-18T05:29:41.879Z,10.00
2022-08-18T05:32:37.341Z,9.17
2022-08-18T05:35:14.371Z,9.00
2022-08-18T05:38:15.685Z,8.60
2022-08-18T05:40:46.175Z,8.67
2022-08-18T05:43:17.173Z,9.13
2022-08-18T05:45:44.526Z,9.27
2022-08-18T05:48:11.630Z,9.87
2022-08-18T05:50:44.168Z,10.60
2022-08-18T05:58:59.967Z,8.63
2022-08-18T06:01:42.118Z,10.10
2022-08-18T06:04:31.236Z,11.60
2022-08-18T06:07:06.477Z,10.52
2022-08-18T06:09:50.721Z,10.53
2022-08-18T06:12:41.197Z,9.23
2022-08-18T06:15:28.696Z,9.15
2022-08-18T06:18:21.436Z,9.02
2022-08-18T06:21:30.453Z,8.57
2022-08-18T06:24:03.806Z,10.75
2022-08-18T06:26:59.074Z,10.45
2022-08-18T06:29:58.078Z,10.40
2022-08-18T06:32:44.595Z,8.75
2022-08-18T06:35:25.860Z,11.60
2022-08-18T06:38:18.241Z,10.68
2022-08-18T06:40:47.832Z,12.05
2022-08-18T06:43:22.141Z,12.18
2022-08-18T06:45:52.454Z,13.02
2022-08-18T06:48:32.964Z,18.00
2022-08-18T06:51:08.161Z,18.13
2022-08-18T06:54:04.972Z,19.30
2022-08-18T06:56:53.471Z,19.25
2022-08-18T06:59:34.296Z,21.40
2022-08-18T07:02:19.503Z,21.75
2022-08-18T07:05:29.407Z,18.88
2022-08-18T07:08:23.314Z,18.77
2022-08-18T07:10:52.743Z,20.73
2022-08-18T07:13:35.856Z,20.95
2022-08-18T07:16:57.769Z,21.73
2022-08-18T07:19:36.877Z,19.98
2022-08-18T07:22:22.399Z,20.33
2022-08-18T07:25:06.989Z,20.13
2022-08-18T07:27:49.955Z,19.88
2022-08-18T07:30:29.565Z,20.85
2022-08-18T07:33:21.265Z,22.08
2022-08-18T07:36:00.484Z,25.75
2022-08-18T07:38:53.540Z,23.77
2022-08-18T07:41:32.271Z,23.80
2022-08-18T07:44:13.959Z,23.73
2022-08-18T07:47:02.797Z,25.48
2022-08-18T07:49:35.377Z,21.77
2022-08-18T07:52:46.906Z,25.77
2022-08-18T07:55:35.575Z,26.80
2022-08-18T07:58:39.688Z,25.70
2022-08-18T08:01:20.015Z,25.83
2022-08-18T08:04:25.618Z,30.63
2022-08-18T08:07:24.513Z,31.88
2022-08-18T08:10:31.678Z,27.98
2022-08-18T08:13:54.603Z,28.70
2022-08-18T08:16:48.604Z,29.70
2022-08-18T08:20:00.092Z,30.00
2022-08-18T08:22:50.517Z,33.28
2022-08-18T08:25:49.743Z,29.83
2022-08-18T08:28:26.929Z,30.38
2022-08-18T08:31:33.488Z,28.83
2022-08-18T08:34:15.199Z,28.88
2022-08-18T08:36:47.516Z,29.23
2022-08-18T08:39:24.115Z,29.40
2022-08-18T08:42:31.844Z,25.42
2022-08-18T08:45:12.366Z,27.55
2022-08-18T08:48:08.480Z,27.27
2022-08-18T08:50:51.131Z,25.83
2022-08-18T08:53:44.347Z,25.75
2022-08-18T08:56:16.348Z,25.38
2022-08-18T08:58:58.822Z,24.67
2022-08-18T09:02:00.037Z,26.13
2022-08-18T09:05:08.924Z,28.38
2022-08-18T09:08:25.436Z,28.02
2022-08-18T09:10:52.655Z,28.13
2022-08-18T09:13:44.751Z,25.75
2022-08-18T09:16:27.847Z,24.48
2022-08-18T09:19:24.361Z,25.75
2022-08-18T09:22:08.297Z,24.20
2022-08-18T09:24:54.833Z,24.42
2022-08-18T09:27:28.945Z,24.25
2022-08-18T09:29:59.802Z,25.08
2022-08-18T09:32:34.612Z,24.15
2022-08-18T09:35:32.996Z,25.35
2022-08-18T09:38:36.635Z,23.13
2022-08-18T09:41:34.137Z,25.50
2022-08-18T09:47:02.149Z,23.73
2022-08-18T09:49:29.316Z,27.65
2022-08-18T09:50:38.468Z,25.27
2022-08-18T09:52:00.289Z,25.17
2022-08-18T09:54:49.840Z,23.92
2022-08-18T09:57:24.403Z,24.88
2022-08-18T09:59:58.459Z,25.85
2022-08-18T10:02:41.645Z,24.92
2022-08-18T10:05:16.795Z,25.90
2022-08-18T10:07:53.330Z,26.25
2022-08-18T10:10:58.858Z,32.45
2022-08-18T10:14:09.534Z,36.53
2022-08-18T10:17:21.518Z,35.08
2022-08-18T10:20:07.992Z,38.10
2022-08-18T10:22:54.899Z,39.05
2022-08-18T10:26:01.453Z,39.45
2022-08-18T10:28:56.047Z,39.10
2022-08-18T10:31:27.237Z,41.00
2022-08-18T10:34:19.253Z,41.88
2022-08-18T10:36:59.003Z,41.90
2022-08-18T10:39:45.421Z,41.90
2022-08-18T10:42:39.905Z,39.88
2022-08-18T10:45:22.101Z,47.75
2022-08-18T10:48:40.129Z,43.70
2022-08-18T10:51:59.726Z,42.17
2022-08-18T10:54:31.038Z,41.65
2022-08-18T10:57:42.999Z,52.60
2022-08-18T11:00:17.516Z,47.58
2022-08-18T11:03:55.817Z,53.22
2022-08-18T11:06:29.133Z,42.58
2022-08-18T11:09:01.170Z,49.35
2022-08-18T11:11:58.564Z,52.20
2022-08-18T11:14:38.838Z,45.22
2022-08-18T11:17:24.298Z,50.80
2022-08-18T11:20:17.872Z,46.53
2022-08-18T11:23:02.168Z,52.35
2022-08-18T11:25:41.322Z,56.03
2022-08-18T11:28:22.077Z,46.28
2022-08-18T11:30:59.459Z,51.08
2022-08-18T11:33:28.122Z,51.58
2022-08-18T11:36:01.668Z,46.63
2022-08-18T11:38:31.369Z,51.05
2022-08-18T11:44:22.573Z,52.22
2022-08-18T11:46:55.422Z,49.70
2022-08-18T11:49:33.722Z,49.40
2022-08-18T11:52:29.187Z,47.88
2022-08-18T11:55:24.385Z,43.50
2022-08-18T11:57:59.106Z,52.95
2022-08-18T12:00:48.779Z,50.60
2022-08-18T12:03:41.318Z,42.63
2022-08-18T12:06:19.403Z,54.97
2022-08-18T12:08:58.818Z,45.50
2022-08-18T12:11:43.004Z,53.92
2022-08-18T12:14:32.286Z,54.40
2022-08-18T12:17:03.014Z,49.80
2022-08-18T12:19:48.145Z,50.55
2022-08-18T12:22:25.444Z,44.00
2022-08-18T12:25:02.545Z,46.33
2022-08-18T12:27:41.431Z,49.97
2022-08-18T12:30:16.635Z,41.75
2022-08-18T12:35:26.028Z,45.85
2022-08-18T12:37:59.547Z,38.47
2022-08-18T12:40:30.977Z,47.10
2022-08-18T12:42:58.302Z,48.97
2022-08-18T12:45:30.223Z,39.50
2022-08-18T12:47:57.577Z,44.47
2022-08-18T12:50:36.138Z,34.70
2022-08-18T12:53:09.218Z,32.75
2022-08-18T12:55:43.646Z,38.83
2022-08-18T12:58:12.813Z,39.72
2022-08-18T13:00:41.187Z,32.42
2022-08-18T13:03:19.588Z,35.22
2022-08-18T13:05:47.058Z,39.72
2022-08-18T13:08:30.367Z,40.08
2022-08-18T13:11:15.094Z,42.85
2022-08-18T13:13:52.671Z,32.70
2022-08-18T13:16:30.830Z,40.15
2022-08-18T13:19:10.956Z,35.28
2022-08-18T13:21:47.362Z,37.10
2022-08-18T13:24:25.498Z,36.45
2022-08-18T13:26:52.995Z,42.80
2022-08-18T13:29:25.588Z,35.83
2022-08-18T13:31:58.068Z,37.45
2022-08-18T13:34:29.783Z,36.10
2022-08-18T13:36:57.610Z,45.50
2022-08-18T13:39:31.430Z,32.70
2022-08-18T13:42:26.779Z,35.92
2022-08-18T13:45:22.712Z,40.20
2022-08-18T13:47:58.591Z,37.83
2022-08-18T13:50:33.420Z,39.33
2022-08-18T13:53:02.192Z,33.25
2022-08-18T13:55:33.006Z,36.05
2022-08-18T13:58:00.705Z,33.05
2022-08-18T14:00:31.079Z,34.80
2022-08-18T14:03:03.572Z,35.17
2022-08-18T14:05:50.801Z,33.63
2022-08-18T14:08:25.970Z,37.45
2022-08-18T14:11:05.321Z,33.20
2022-08-18T14:13:43.482Z,35.50
2022-08-18T14:16:30.933Z,35.95
2022-08-18T14:19:17.821Z,37.42
2022-08-18T14:22:11.143Z,29.95
2022-08-18T14:24:59.460Z,32.90
2022-08-18T14:27:56.952Z,36.38
2022-08-18T14:30:33.817Z,37.28
2022-08-18T14:33:01.566Z,35.85
2022-08-18T14:36:03.723Z,37.20
2022-08-18T14:38:22.262Z,37.75
2022-08-18T14:40:58.556Z,43.45
2022-08-18T14:43:27.871Z,37.15
2022-08-18T14:46:29.926Z,38.40
2022-08-18T14:49:03.868Z,34.92
2022-08-18T14:51:50.420Z,40.75
2022-08-18T14:54:28.440Z,38.45
2022-08-18T14:57:05.517Z,41.92
2022-08-18T14:59:40.087Z,38.50
2022-08-18T15:02:13.413Z,37.15
2022-08-18T15:04:52.953Z,38.35
2022-08-18T15:07:25.584Z,35.45
2022-08-18T15:10:19.752Z,34.92
2022-08-18T15:12:53.289Z,39.42
2022-08-18T15:15:22.412Z,37.03
2022-08-18T15:17:52.920Z,37.03
2022-08-18T15:20:30.550Z,34.05
2022-08-18T15:23:22.823Z,36.20
2022-08-18T15:26:03.084Z,42.88
2022-08-18T15:28:34.145Z,36.30
2022-08-18T15:31:17.195Z,37.67
2022-08-18T15:33:51.353Z,33.92
2022-08-18T15:36:28.942Z,36.42
2022-08-18T15:38:57.234Z,30.80
2022-08-18T15:41:43.947Z,29.85
2022-08-18T15:44:16.664Z,31.80
2022-08-18T15:46:53.613Z,32.53
2022-08-18T15:49:34.589Z,29.75
2022-08-18T15:52:12.694Z,34.40
2022-08-18T15:54:53.885Z,34.53
2022-08-18T15:57:38.935Z,34.80
2022-08-18T16:00:08.308Z,32.00
2022-08-18T16:02:44.806Z,30.30
2022-08-18T16:05:17.089Z,31.42
2022-08-18T16:07:46.069Z,33.38
2022-08-18T16:10:17.487Z,30.90
2022-08-18T16:12:46.410Z,33.40
2022-08-18T16:15:27.833Z,29.35
2022-08-18T16:17:55.565Z,29.92
2022-08-18T16:20:24.028Z,29.75
2022-08-18T16:22:53.083Z,29.55
2022-08-18T16:25:21.387Z,26.25
2022-08-18T16:27:48.633Z,30.55
2022-08-18T16:30:20.179Z,30.45
2022-08-18T16:32:48.257Z,29.27
2022-08-18T16:35:17.637Z,27.65
2022-08-18T16:37:46.691Z,28.77
2022-08-18T16:40:15.227Z,34.22
2022-08-18T16:42:42.456Z,37.20
2022-08-18T16:45:29.092Z,29.38
2022-08-18T16:47:56.187Z,28.85
2022-08-18T16:50:25.008Z,33.08
2022-08-18T16:52:52.364Z,30.67
2022-08-18T16:55:22.782Z,37.03
2022-08-18T16:58:12.472Z,35.22
2022-08-18T17:01:20.887Z,26.60
2022-08-18T17:04:20.671Z,29.33
2022-08-18T17:07:23.280Z,30.40
2022-08-18T17:09:50.520Z,29.58
2022-08-18T17:12:17.714Z,30.08
2022-08-18T17:14:44.963Z,26.90
2022-08-18T17:17:12.357Z,28.70
2022-08-18T17:19:39.596Z,27.00
2022-08-18T17:22:07.250Z,36.33
2022-08-18T17:27:38.015Z,31.52
2022-08-18T17:30:17.407Z,29.30
2022-08-18T17:32:56.257Z,31.90
2022-08-18T17:35:39.050Z,45.78
2022-08-18T17:38:14.077Z,45.00
2022-08-18T17:40:51.264Z,36.67
2022-08-18T17:43:21.476Z,33.97
2022-08-18T17:46:07.122Z,38.97
2022-08-18T17:48:53.366Z,37.15
2022-08-18T17:51:34.412Z,36.00
2022-08-18T17:54:09.715Z,43.85
2022-08-18T17:56:55.246Z,42.22
2022-08-18T17:59:45.490Z,34.50
2022-08-18T18:02:31.380Z,39.17
2022-08-18T18:05:01.320Z,41.50
2022-08-18T18:07:31.361Z,35.03
2022-08-18T18:10:08.597Z,27.33
2022-08-18T18:12:37.786Z,34.08
2022-08-18T18:15:09.445Z,33.17
2022-08-18T18:17:39.772Z,33.00
2022-08-18T18:20:32.962Z,31.40
2022-08-18T18:23:20.476Z,33.60
2022-08-18T18:25:47.945Z,37.42
2022-08-18T18:28:33.547Z,28.50
2022-08-18T18:31:21.391Z,37.90
2022-08-18T18:34:23.286Z,31.35
2022-08-18T18:36:56.308Z,38.15
2022-08-18T18:39:35.921Z,30.48
2022-08-18T18:42:19.445Z,31.70
2022-08-18T18:44:53.639Z,29.15
2022-08-18T18:47:48.095Z,30.33
2022-08-18T18:50:58.241Z,29.40
2022-08-18T18:53:46.409Z,26.42
2022-08-18T18:56:27.078Z,22.80
2022-08-18T18:59:35.419Z,26.52
2022-08-18T19:02:33.279Z,28.83
2022-08-18T19:05:25.799Z,25.42
2022-08-18T19:08:40.569Z,25.67
2022-08-18T19:11:43.006Z,25.73
2022-08-18T19:14:20.961Z,33.78
2022-08-18T19:17:03.062Z,32.35
2022-08-18T19:19:36.891Z,32.50
2022-08-18T19:22:39.986Z,32.05
2022-08-18T19:25:25.033Z,28.83
2022-08-18T19:28:17.357Z,32.67
2022-08-18T19:30:49.045Z,31.52
2022-08-18T19:33:50.141Z,26.35
2022-08-18T19:36:55.493Z,25.92
2022-08-18T19:39:46.881Z,26.90
2022-08-18T19:42:43.399Z,22.50
2022-08-18T19:45:34.432Z,30.08
2022-08-18T19:48:04.465Z,22.95
2022-08-18T19:50:52.760Z,29.75
2022-08-18T20:09:30.381Z,23.40
2022-08-18T20:16:44.217Z,21.15
2022-08-18T20:19:36.274Z,22.30
2022-08-18T20:22:07.193Z,23.13
2022-08-18T20:24:49.542Z,22.58
2022-08-18T20:28:18.774Z,26.75
2022-08-18T20:30:58.883Z,24.58
2022-08-18T20:33:26.144Z,19.33
2022-08-18T20:36:29.482Z,24.98
2022-08-18T20:38:59.979Z,20.65
2022-08-18T20:41:33.376Z,19.77
2022-08-18T20:44:36.792Z,18.60
2022-08-18T20:47:22.632Z,20.25
2022-08-18T20:50:52.544Z,19.20
2022-08-18T20:53:57.496Z,19.63
2022-08-18T20:56:43.589Z,26.55
2022-08-18T20:59:18.447Z,24.02
2022-08-18T21:02:05.170Z,21.70
2022-08-18T21:04:34.560Z,25.90
2022-08-18T21:07:13.150Z,23.65
2022-08-18T21:10:13.054Z,22.00
2022-08-18T21:12:52.081Z,21.45
2022-08-18T21:15:26.934Z,20.77
2022-08-18T21:18:03.867Z,23.13
2022-08-18T21:20:33.126Z,18.23
2022-08-18T21:23:13.203Z,19.98
2022-08-18T21:25:52.796Z,19.08
2022-08-18T21:28:21.832Z,19.88
2022-08-18T21:31:41.821Z,17.20
2022-08-18T21:33:56.289Z,21.05
2022-08-18T21:36:25.689Z,18.73
2022-08-18T21:39:03.472Z,18.05
2022-08-18T21:41:39.557Z,16.05
2022-08-18T21:44:13.861Z,19.45
2022-08-18T21:46:43.852Z,17.55
2022-08-18T21:49:11.218Z,16.15
2022-08-18T21:51:47.475Z,21.05
2022-08-18T21:54:18.288Z,21.95
2022-08-18T21:56:45.635Z,21.77
2022-08-18T22:03:12.152Z,20.58
2022-08-18T22:05:55.045Z,18.60
2022-08-18T22:08:31.960Z,23.38
2022-08-18T22:11:43.573Z,18.05
2022-08-18T22:14:54.605Z,23.35
2022-08-18T22:17:31.590Z,21.98
2022-08-18T22:20:33.093Z,24.27
2022-08-18T22:23:54.925Z,25.58
2022-08-18T22:26:27.410Z,25.30
2022-08-18T22:32:37.811Z,24.38
2022-08-18T22:35:07.243Z,23.70
2022-08-18T22:37:42.592Z,22.55
2022-08-18T22:40:14.127Z,19.77
2022-08-18T22:42:41.833Z,23.92
2022-08-18T22:45:13.656Z,22.90
2022-08-18T22:47:45.144Z,24.75
2022-08-18T22:50:13.506Z,24.83
2022-08-18T22:52:44.288Z,25.05
2022-08-18T22:55:14.862Z,25.75
2022-08-18T22:57:46.485Z,23.55
2022-08-18T23:00:18.218Z,25.00
2022-08-18T23:02:47.770Z,21.88
2022-08-18T23:05:28.283Z,20.77
2022-08-18T23:07:55.811Z,17.83
2022-08-18T23:10:23.232Z,24.55
2022-08-18T23:12:52.850Z,20.35
2022-08-18T23:15:48.457Z,21.27
2022-08-18T23:18:19.941Z,23.25
2022-08-18T23:20:54.902Z,20.70
2022-08-18T23:23:24.242Z,23.00
2022-08-18T23:25:52.439Z,17.83
2022-08-18T23:28:20.785Z,18.80
2022-08-18T23:31:00.402Z,19.17
2022-08-18T23:33:27.958Z,17.77
2022-08-18T23:35:55.278Z,15.80
2022-08-18T23:38:23.011Z,18.27
2022-08-18T23:40:59.110Z,16.33
2022-08-18T23:48:49.759Z,16.30
2022-08-18T23:51:32.906Z,17.60
2022-08-18T23:54:04.027Z,15.93
2022-08-18T23:56:32.524Z,19.08
2022-08-18T23:59:01.876Z,16.95
